createdAt,value
2022-09-26T00:01:38.003Z,4.30
2022-09-26T00:04:10.240Z,3.58
2022-09-26T00:06:37.371Z,3.45
2022-09-26T00:09:04.393Z,4.07
2022-09-26T00:11:33.464Z,3.75
2022-09-26T00:14:04.008Z,3.53
2022-09-26T00:16:31.306Z,3.97
2022-09-26T00:18:59.233Z,3.83
2022-09-26T00:21:27.718Z,3.10
2022-09-26T00:23:54.914Z,3.20
2022-09-26T00:26:23.731Z,3.65
2022-09-26T00:28:51.412Z,3.50
2022-09-26T00:31:32.542Z,3.50
2022-09-26T00:33:59.713Z,3.72
2022-09-26T00:36:37.388Z,3.33
2022-09-26T00:39:05.264Z,3.70
2022-09-26T00:41:32.284Z,3.50
2022-09-26T00:44:00.066Z,3.60
2022-09-26T00:46:47.074Z,3.92
2022-09-26T00:49:32.750Z,3.13
2022-09-26T00:52:20.447Z,3.40
2022-09-26T00:54:51.292Z,3.38
2022-09-26T00:57:24.760Z,3.80
2022-09-26T00:59:59.736Z,4.07
2022-09-26T01:02:28.997Z,3.75
2022-09-26T01:04:57.707Z,3.63
2022-09-26T01:07:27.548Z,3.38
2022-09-26T01:09:56.034Z,3.58
2022-09-26T01:12:23.340Z,3.45
2022-09-26T01:14:55.051Z,3.13
2022-09-26T01:17:24.804Z,3.33
2022-09-26T01:19:51.838Z,3.60
2022-09-26T01:23:00.332Z,3.13
2022-09-26T01:25:56.216Z,3.08
2022-09-26T01:28:49.628Z,3.50
2022-09-26T01:31:38.321Z,3.05
2022-09-26T01:34:22.706Z,3.17
2022-09-26T01:36:49.597Z,3.47
2022-09-26T01:39:31.535Z,3.22
2022-09-26T01:42:15.610Z,3.60
2022-09-26T01:45:11.781Z,3.15
2022-09-26T01:47:47.794Z,2.97
2022-09-26T01:50:35.061Z,2.90
2022-09-26T01:55:45.307Z,2.70
2022-09-26T01:58:25.467Z,3.10
2022-09-26T02:00:54.837Z,3.00
2022-09-26T02:03:27.542Z,2.53
2022-09-26T02:06:09.220Z,2.75
2022-09-26T02:08:54.332Z,2.92
2022-09-26T02:11:22.779Z,2.70
2022-09-26T02:13:56.023Z,2.92
2022-09-26T02:16:30.219Z,2.53
2022-09-26T02:19:10.348Z,2.50
2022-09-26T02:21:37.579Z,3.03
2022-09-26T02:24:04.675Z,2.05
2022-09-26T02:26:32.239Z,2.67
2022-09-26T02:29:01.164Z,2.55
2022-09-26T02:31:33.409Z,2.60
2022-09-26T02:34:00.594Z,2.40
2022-09-26T02:36:28.743Z,2.42
2022-09-26T02:38:56.091Z,2.63
2022-09-26T02:42:01.063Z,2.50
2022-09-26T02:44:40.545Z,2.40
2022-09-26T02:47:26.110Z,2.28
2022-09-26T02:50:22.287Z,2.10
2022-09-26T02:52:55.376Z,3.60
2022-09-26T02:55:44.889Z,2.30
2022-09-26T02:58:35.118Z,1.80
2022-09-26T03:01:12.911Z,2.30
2022-09-26T03:06:11.635Z,1.88
2022-09-26T03:08:44.197Z,2.13
2022-09-26T03:11:14.063Z,1.88
2022-09-26T03:13:42.365Z,2.30
2022-09-26T03:16:11.307Z,2.22
2022-09-26T03:18:54.492Z,2.00
2022-09-26T03:21:23.551Z,1.90
2022-09-26T03:23:51.180Z,2.42
2022-09-26T03:26:24.636Z,1.77
2022-09-26T03:28:59.102Z,2.78
2022-09-26T03:31:29.098Z,1.70
2022-09-26T03:36:32.371Z,1.80
2022-09-26T03:39:01.293Z,1.95
2022-09-26T03:41:46.141Z,2.10
2022-09-26T03:44:26.786Z,2.10
2022-09-26T03:47:13.619Z,2.10
2022-09-26T03:49:42.494Z,1.98
2022-09-26T03:52:12.097Z,2.08
2022-09-26T03:54:39.630Z,2.15
2022-09-26T03:57:06.852Z,2.30
2022-09-26T03:59:38.175Z,2.20
2022-09-26T04:02:06.792Z,1.92
2022-09-26T04:04:39.136Z,2.20
2022-09-26T04:07:09.254Z,2.00
2022-09-26T04:09:36.267Z,2.50
2022-09-26T04:12:04.750Z,2.30
2022-09-26T04:14:34.330Z,2.22
2022-09-26T04:17:01.250Z,2.20
2022-09-26T04:19:38.665Z,2.40
2022-09-26T04:22:08.247Z,1.85
2022-09-26T04:24:35.842Z,2.20
2022-09-26T04:27:03.545Z,1.70
2022-09-26T04:29:31.082Z,1.90
2022-09-26T04:32:06.447Z,2.38
2022-09-26T04:34:44.013Z,1.85
2022-09-26T04:37:12.185Z,1.63
2022-09-26T04:39:39.080Z,1.80
2022-09-26T04:42:06.132Z,2.15
2022-09-26T04:44:33.054Z,2.20
2022-09-26T04:46:59.983Z,2.10
2022-09-26T04:49:45.926Z,1.98
2022-09-26T04:52:13.827Z,2.13
2022-09-26T04:54:40.754Z,2.15
2022-09-26T04:57:07.747Z,2.00
2022-09-26T04:59:35.457Z,2.35
2022-09-26T05:02:05.469Z,2.38
2022-09-26T05:04:40.575Z,2.53
2022-09-26T05:07:07.486Z,1.90
2022-09-26T05:09:36.297Z,1.90
2022-09-26T05:12:07.259Z,2.38
2022-09-26T05:14:36.370Z,2.05
2022-09-26T05:17:04.678Z,1.92
2022-09-26T05:19:33.064Z,2.97
2022-09-26T05:22:14.903Z,2.55
2022-09-26T05:25:00.092Z,1.85
2022-09-26T05:27:27.134Z,1.90
2022-09-26T05:29:55.911Z,2.42
2022-09-26T05:32:23.894Z,1.70
2022-09-26T05:34:52.077Z,1.85
2022-09-26T05:37:21.379Z,1.70
2022-09-26T05:40:07.950Z,1.63
2022-09-26T05:42:39.869Z,2.20
2022-09-26T05:45:07.608Z,2.08
2022-09-26T05:47:36.385Z,1.92
2022-09-26T05:50:10.072Z,1.58
2022-09-26T05:52:39.507Z,1.77
2022-09-26T05:55:08.901Z,2.17
2022-09-26T05:57:57.028Z,2.05
2022-09-26T06:00:27.840Z,2.10
2022-09-26T06:03:01.300Z,1.70
2022-09-26T06:05:47.318Z,1.70
2022-09-26T06:08:17.503Z,2.22
2022-09-26T06:11:10.597Z,2.15
2022-09-26T06:13:37.646Z,2.25
2022-09-26T06:16:07.404Z,2.00
2022-09-26T06:18:35.014Z,2.03
2022-09-26T06:21:06.223Z,2.00
2022-09-26T06:23:36.120Z,1.83
2022-09-26T06:26:09.548Z,2.08
2022-09-26T06:28:36.783Z,2.13
2022-09-26T06:31:16.959Z,1.70
2022-09-26T06:34:05.522Z,2.05
2022-09-26T06:36:53.907Z,1.60
2022-09-26T06:39:20.897Z,1.80
2022-09-26T06:41:47.949Z,2.05
2022-09-26T06:44:35.406Z,1.70
2022-09-26T06:47:14.492Z,1.88
2022-09-26T06:49:41.484Z,1.65
2022-09-26T06:52:20.874Z,1.65
2022-09-26T06:54:48.095Z,2.03
2022-09-26T06:57:15.437Z,2.25
2022-09-26T06:59:42.699Z,1.70
2022-09-26T07:02:26.584Z,1.85
2022-09-26T07:05:14.612Z,1.92
2022-09-26T07:07:51.236Z,1.88
2022-09-26T07:10:25.993Z,2.13
2022-09-26T07:13:04.216Z,2.28
2022-09-26T07:15:33.551Z,1.98
2022-09-26T07:18:06.495Z,1.98
2022-09-26T07:20:59.134Z,2.10
2022-09-26T07:23:56.744Z,2.63
2022-09-26T07:26:23.653Z,2.30
2022-09-26T07:28:56.744Z,1.98
2022-09-26T07:31:26.347Z,2.20
2022-09-26T07:34:05.256Z,2.38
2022-09-26T07:36:32.244Z,1.95
2022-09-26T07:38:59.479Z,1.70
2022-09-26T07:41:31.295Z,1.80
2022-09-26T07:47:05.154Z,1.92
2022-09-26T07:49:50.924Z,1.88
2022-09-26T07:52:36.099Z,1.88
2022-09-26T07:55:26.226Z,1.77
2022-09-26T07:58:07.236Z,2.15
2022-09-26T08:00:52.641Z,1.73
2022-09-26T08:03:44.456Z,1.92
2022-09-26T08:06:22.327Z,2.00
2022-09-26T08:08:53.151Z,1.92
2022-09-26T08:11:39.915Z,1.50
2022-09-26T08:14:29.755Z,1.75
2022-09-26T08:17:03.994Z,1.70
2022-09-26T08:19:31.094Z,1.90
2022-09-26T08:21:59.270Z,2.13
2022-09-26T08:24:26.201Z,2.10
2022-09-26T08:27:11.361Z,2.05
2022-09-26T08:29:42.349Z,2.75
2022-09-26T08:32:09.753Z,2.03
2022-09-26T08:34:36.654Z,2.47
2022-09-26T08:37:28.201Z,2.28
2022-09-26T08:40:13.766Z,2.55
2022-09-26T08:43:26.158Z,2.72
2022-09-26T08:46:31.755Z,2.92
2022-09-26T08:49:50.993Z,2.63
2022-09-26T08:52:30.792Z,2.63
2022-09-26T08:55:02.322Z,3.00
2022-09-26T08:57:32.419Z,2.40
2022-09-26T08:59:59.684Z,4.03
2022-09-26T09:02:33.742Z,1.80
2022-09-26T09:05:22.339Z,1.88
2022-09-26T09:07:53.842Z,1.80
2022-09-26T09:10:36.196Z,1.60
2022-09-26T09:13:43.122Z,1.90
2022-09-26T09:16:37.378Z,1.63
2022-09-26T09:19:48.874Z,1.60
2022-09-26T09:23:18.402Z,1.83
2022-09-26T09:29:30.430Z,1.60
2022-09-26T09:32:21.831Z,1.58
2022-09-26T09:35:18.881Z,1.70
2022-09-26T09:38:19.286Z,1.52
2022-09-26T09:41:25.016Z,1.60
2022-09-26T10:17:32.182Z,1.70
2022-09-26T10:20:35.332Z,2.05
2022-09-26T10:23:06.365Z,1.55
2022-09-26T10:25:33.425Z,2.05
2022-09-26T10:28:01.490Z,1.70
2022-09-26T10:30:46.635Z,1.50
2022-09-26T10:33:29.301Z,1.40
2022-09-26T10:36:21.935Z,1.35
2022-09-26T10:39:17.500Z,1.73
2022-09-26T10:41:47.552Z,1.63
2022-09-26T10:44:26.672Z,1.70
2022-09-26T10:47:08.766Z,1.45
2022-09-26T10:50:20.174Z,1.63
2022-09-26T10:53:17.418Z,1.48
2022-09-26T10:55:51.295Z,1.50
2022-09-26T10:58:27.867Z,1.50
2022-09-26T11:01:00.931Z,1.85
2022-09-26T11:03:42.033Z,1.52
2022-09-26T11:06:47.101Z,1.80
2022-09-26T11:09:27.561Z,1.65
2022-09-26T11:12:40.182Z,1.48
2022-09-26T11:15:14.213Z,1.60
2022-09-26T11:17:49.793Z,1.80
2022-09-26T11:20:17.997Z,1.67
2022-09-26T11:23:13.992Z,1.90
2022-09-26T11:26:03.279Z,1.70
2022-09-26T11:29:03.841Z,1.90
2022-09-26T11:31:48.656Z,1.83
2022-09-26T11:34:35.309Z,1.45
2022-09-26T11:37:42.302Z,1.63
2022-09-26T11:40:49.021Z,1.50
2022-09-26T11:43:18.490Z,1.80
2022-09-26T11:45:53.618Z,1.80
2022-09-26T11:49:05.699Z,2.35
2022-09-26T11:52:29.742Z,1.92
2022-09-26T11:55:04.919Z,1.77
2022-09-26T11:57:53.898Z,1.90
2022-09-26T12:00:27.741Z,2.03
2022-09-26T12:03:20.975Z,1.98
2022-09-26T12:06:01.811Z,1.95
2022-09-26T12:08:57.970Z,2.00
2022-09-26T12:11:51.218Z,2.28
2022-09-26T12:14:18.083Z,2.60
2022-09-26T12:17:03.889Z,2.92
2022-09-26T12:19:40.001Z,2.60
2022-09-26T12:22:36.186Z,2.53
2022-09-26T12:25:24.278Z,2.85
2022-09-26T12:28:03.106Z,2.60
2022-09-26T12:30:39.124Z,2.60
2022-09-26T12:33:50.533Z,2.53
2022-09-26T12:36:23.608Z,2.28
2022-09-26T12:39:11.532Z,2.70
2022-09-26T12:41:56.566Z,2.30
2022-09-26T12:45:11.522Z,2.55
2022-09-26T12:48:09.783Z,2.30
2022-09-26T12:50:54.548Z,3.00
2022-09-26T12:53:48.703Z,2.35
2022-09-26T12:56:26.739Z,2.67
2022-09-26T12:59:21.397Z,2.38
2022-09-26T13:02:26.791Z,2.33
2022-09-26T13:05:11.766Z,2.60
2022-09-26T13:07:59.416Z,2.08
2022-09-26T13:10:44.168Z,2.53
2022-09-26T13:13:22.477Z,2.47
2022-09-26T13:16:13.434Z,2.95
2022-09-26T13:18:47.301Z,2.47
2022-09-26T13:21:28.584Z,2.72
2022-09-26T13:24:00.314Z,2.60
2022-09-26T13:26:45.253Z,2.70
2022-09-26T13:29:37.601Z,2.75
2022-09-26T13:32:36.807Z,3.03
2022-09-26T13:35:21.383Z,3.08
2022-09-26T13:38:16.177Z,2.65
2022-09-26T13:41:23.376Z,2.70
2022-09-26T13:44:03.760Z,2.42
2022-09-26T13:46:52.906Z,2.50
2022-09-26T13:49:30.421Z,2.85
2022-09-26T13:51:57.384Z,2.67
2022-09-26T13:54:34.797Z,3.00
2022-09-26T13:57:44.535Z,2.47
2022-09-26T14:00:34.887Z,3.00
2022-09-26T14:03:10.300Z,2.33
2022-09-26T14:05:46.768Z,2.47
2022-09-26T14:08:44.426Z,2.50
2022-09-26T14:11:32.979Z,2.65
2022-09-26T14:14:18.289Z,3.00
2022-09-26T14:16:45.961Z,2.78
2022-09-26T14:19:19.260Z,2.83
2022-09-26T14:22:05.320Z,2.30
2022-09-26T14:24:42.743Z,2.47
2022-09-26T14:27:09.658Z,2.22
2022-09-26T14:29:36.666Z,2.28
2022-09-26T14:32:27.468Z,2.63
2022-09-26T14:34:54.648Z,2.70
2022-09-26T14:37:24.518Z,2.95
2022-09-26T14:40:00.495Z,3.00
2022-09-26T14:42:31.973Z,2.70
2022-09-26T14:45:05.545Z,2.67
2022-09-26T14:47:43.550Z,2.80
2022-09-26T14:50:18.419Z,2.30
2022-09-26T14:53:10.100Z,2.33
2022-09-26T14:56:01.170Z,2.45
2022-09-26T14:58:32.680Z,2.83
2022-09-26T15:01:05.944Z,2.60
2022-09-26T15:03:34.778Z,2.40
2022-09-26T15:06:05.773Z,2.45
2022-09-26T15:08:40.031Z,2.25
2022-09-26T15:11:08.199Z,2.42
2022-09-26T15:13:43.451Z,2.33
2022-09-26T15:16:32.884Z,2.40
2022-09-26T15:19:35.000Z,2.35
2022-09-26T15:22:13.641Z,2.20
2022-09-26T15:24:41.785Z,2.40
2022-09-26T15:27:29.609Z,2.20
2022-09-26T15:30:05.067Z,2.30
2022-09-26T15:32:34.234Z,2.07
2022-09-26T15:35:03.805Z,2.50
2022-09-26T15:37:36.693Z,2.40
2022-09-26T15:40:24.695Z,2.72
2022-09-26T15:43:09.988Z,1.88
2022-09-26T15:45:46.435Z,2.22
2022-09-26T15:51:11.458Z,2.20
2022-09-26T15:53:46.367Z,2.42
2022-09-26T15:56:54.876Z,2.10
2022-09-26T15:59:40.942Z,2.30
2022-09-26T16:02:24.560Z,2.60
2022-09-26T16:04:54.921Z,2.15
2022-09-26T16:07:26.704Z,2.50
2022-09-26T16:09:56.226Z,2.28
2022-09-26T16:12:29.123Z,2.60
2022-09-26T16:15:05.789Z,2.22
2022-09-26T16:17:49.252Z,2.00
2022-09-26T16:20:16.571Z,1.90
2022-09-26T16:22:51.841Z,2.22
2022-09-26T16:25:23.343Z,2.17
2022-09-26T16:27:58.449Z,2.72
2022-09-26T16:30:28.275Z,2.40
2022-09-26T16:33:12.953Z,2.67
2022-09-26T16:35:47.838Z,2.30
2022-09-26T16:38:26.484Z,2.50
2022-09-26T16:41:01.934Z,2.75
2022-09-26T16:43:34.383Z,2.60
2022-09-26T16:46:10.729Z,3.05
2022-09-26T16:48:41.903Z,2.55
2022-09-26T16:51:13.710Z,2.40
2022-09-26T16:53:43.367Z,3.40
2022-09-26T16:56:14.538Z,2.92
2022-09-26T16:58:49.198Z,2.78
2022-09-26T17:01:38.414Z,2.75
2022-09-26T17:04:13.490Z,3.03
2022-09-26T17:06:40.663Z,2.70
2022-09-26T17:09:34.194Z,2.60
2022-09-26T17:12:05.115Z,2.20
2022-09-26T17:14:40.435Z,2.60
2022-09-26T17:17:16.281Z,3.00
2022-09-26T17:19:46.319Z,2.70
2022-09-26T17:22:19.339Z,3.00
2022-09-26T17:24:48.160Z,2.25
2022-09-26T17:27:17.993Z,2.58
2022-09-26T17:29:48.640Z,2.78
2022-09-26T17:32:30.734Z,2.50
2022-09-26T17:35:00.056Z,2.58
2022-09-26T17:37:28.030Z,2.13
2022-09-26T17:39:56.061Z,2.53
2022-09-26T17:42:23.715Z,2.50
2022-09-26T17:44:51.160Z,2.17
2022-09-26T17:47:19.316Z,2.45
2022-09-26T17:49:56.223Z,2.42
2022-09-26T17:52:32.303Z,2.33
2022-09-26T17:55:04.478Z,2.35
2022-09-26T17:57:34.523Z,2.55
2022-09-26T18:00:11.128Z,2.30
2022-09-26T18:02:45.032Z,2.38
2022-09-26T18:05:22.150Z,2.47
2022-09-26T18:07:55.462Z,2.25
2022-09-26T18:10:30.865Z,2.30
2022-09-26T18:13:01.074Z,2.55
2022-09-26T18:15:29.549Z,2.13
2022-09-26T18:17:57.203Z,2.40
2022-09-26T18:20:38.196Z,2.22
2022-09-26T18:23:07.587Z,2.45
2022-09-26T18:25:37.850Z,2.50
2022-09-26T18:28:08.764Z,2.60
2022-09-26T18:30:44.994Z,2.92
2022-09-26T18:33:14.003Z,2.08
2022-09-26T18:35:42.185Z,2.40
2022-09-26T18:38:12.397Z,2.13
2022-09-26T18:40:55.215Z,2.17
2022-09-26T18:43:25.372Z,1.90
2022-09-26T18:45:53.163Z,2.30
2022-09-26T18:48:30.800Z,1.90
2022-09-26T18:50:59.291Z,2.00
2022-09-26T18:53:37.390Z,1.70
2022-09-26T18:56:27.981Z,2.13
2022-09-26T18:58:57.079Z,2.35
2022-09-26T19:01:38.668Z,1.67
2022-09-26T19:04:10.965Z,2.00
2022-09-26T19:06:42.070Z,1.80
2022-09-26T19:09:18.629Z,1.90
2022-09-26T19:11:46.681Z,2.30
2022-09-26T19:14:16.777Z,2.38
2022-09-26T19:16:45.705Z,1.98
2022-09-26T19:19:13.335Z,1.92
2022-09-26T19:21:43.117Z,2.08
2022-09-26T19:24:37.421Z,2.10
2022-09-26T19:27:21.213Z,2.00
2022-09-26T19:29:54.171Z,2.20
2022-09-26T19:32:33.550Z,1.95
2022-09-26T19:35:03.498Z,2.25
2022-09-26T19:37:30.441Z,2.35
2022-09-26T19:39:57.921Z,2.20
2022-09-26T19:42:26.252Z,2.20
2022-09-26T19:44:53.244Z,2.17
2022-09-26T19:47:23.415Z,1.85
2022-09-26T19:49:52.877Z,2.22
2022-09-26T19:52:22.192Z,1.92
2022-09-26T19:54:49.837Z,1.85
2022-09-26T19:57:19.165Z,2.78
2022-09-26T19:59:47.199Z,2.22
2022-09-26T20:02:32.057Z,2.00
2022-09-26T20:04:59.229Z,1.67
2022-09-26T20:07:26.141Z,2.08
2022-09-26T20:09:53.191Z,1.75
2022-09-26T20:12:20.466Z,2.40
2022-09-26T20:14:47.376Z,1.95
2022-09-26T20:17:26.272Z,1.92
2022-09-26T20:19:58.644Z,2.10
2022-09-26T20:22:26.348Z,2.40
2022-09-26T20:24:57.649Z,1.80
2022-09-26T20:27:29.333Z,2.10
2022-09-26T20:30:15.700Z,2.13
2022-09-26T20:32:42.770Z,1.92
2022-09-26T20:35:15.838Z,1.95
2022-09-26T20:37:44.106Z,1.83
2022-09-26T20:40:18.369Z,1.95
2022-09-26T20:42:48.760Z,2.10
2022-09-26T20:45:19.631Z,2.15
2022-09-26T20:47:46.836Z,2.15
2022-09-26T20:50:17.838Z,2.13
2022-09-26T20:52:45.138Z,2.10
2022-09-26T20:55:18.110Z,2.17
2022-09-26T20:57:45.601Z,1.85
2022-09-26T21:00:17.950Z,1.98
2022-09-26T21:02:47.120Z,1.60
2022-09-26T21:05:24.520Z,1.90
2022-09-26T21:07:52.536Z,1.90
2022-09-26T21:10:28.282Z,1.70
2022-09-26T21:12:55.610Z,2.50
2022-09-26T21:15:24.819Z,2.15
2022-09-26T21:17:53.378Z,2.53
2022-09-26T21:20:26.688Z,2.85
2022-09-26T21:23:01.969Z,1.90
2022-09-26T21:25:31.255Z,2.22
2022-09-26T21:28:01.808Z,2.25
2022-09-26T21:30:29.732Z,2.13
2022-09-26T21:32:59.030Z,2.25
2022-09-26T21:35:30.081Z,1.80
2022-09-26T21:37:59.007Z,2.17
2022-09-26T21:40:30.250Z,2.20
2022-09-26T21:43:03.122Z,1.90
2022-09-26T21:45:30.063Z,2.42
2022-09-26T21:47:57.530Z,2.33
2022-09-26T21:50:28.188Z,2.25
2022-09-26T21:53:06.119Z,2.10
2022-09-26T21:55:36.470Z,2.17
2022-09-26T21:58:09.312Z,2.10
2022-09-26T22:00:36.224Z,2.38
2022-09-26T22:03:03.216Z,2.03
2022-09-26T22:05:31.123Z,2.50
2022-09-26T22:07:58.510Z,2.20
2022-09-26T22:10:27.170Z,2.70
2022-09-26T22:12:54.062Z,2.20
2022-09-26T22:15:21.173Z,2.10
2022-09-26T22:17:48.614Z,2.10
2022-09-26T22:20:15.994Z,2.53
2022-09-26T22:22:43.010Z,2.13
2022-09-26T22:25:10.146Z,3.03
2022-09-26T22:27:37.267Z,2.20
2022-09-26T22:30:06.124Z,2.15
2022-09-26T22:32:33.171Z,2.67
2022-09-26T22:35:00.095Z,2.40
2022-09-26T22:37:27.045Z,2.30
2022-09-26T22:39:53.981Z,2.40
2022-09-26T22:42:20.891Z,2.33
2022-09-26T22:44:47.905Z,2.50
2022-09-26T22:47:14.797Z,2.38
2022-09-26T22:49:41.834Z,2.83
2022-09-26T22:52:08.733Z,2.40
2022-09-26T22:54:35.642Z,2.75
2022-09-26T22:57:02.640Z,2.58
2022-09-26T22:59:29.528Z,2.70
2022-09-26T23:01:57.260Z,2.70
2022-09-26T23:04:24.282Z,2.55
2022-09-26T23:06:51.281Z,2.88
2022-09-26T23:09:18.230Z,2.78
2022-09-26T23:11:46.061Z,3.08
2022-09-26T23:14:12.974Z,2.58
2022-09-26T23:16:40.102Z,3.10
2022-09-26T23:19:07.101Z,2.72
2022-09-26T23:21:34.318Z,2.85
2022-09-26T23:24:01.614Z,3.13
2022-09-26T23:26:31.678Z,3.00
2022-09-26T23:28:59.312Z,3.00
2022-09-26T23:31:28.270Z,3.05
2022-09-26T23:33:56.121Z,2.80
2022-09-26T23:36:23.495Z,3.05
2022-09-26T23:38:50.585Z,2.92
2022-09-26T23:41:17.596Z,2.80
2022-09-26T23:43:46.451Z,2.83
2022-09-26T23:46:13.658Z,2.97
2022-09-26T23:48:40.632Z,2.80
2022-09-26T23:51:07.940Z,2.88
2022-09-26T23:53:35.195Z,2.67
2022-09-26T23:56:13.819Z,3.13
2022-09-26T23:58:41.722Z,2.80
